createdAt,value
2022-10-04T00:02:17.743Z,10.03
2022-10-04T00:05:23.001Z,10.02
2022-10-04T00:08:59.243Z,9.98
2022-10-04T00:12:03.342Z,9.99
2022-10-04T00:15:16.691Z,10.03
2022-10-04T00:18:32.702Z,9.93
2022-10-04T00:21:53.488Z,10.03
2022-10-04T00:25:09.993Z,9.99
2022-10-04T00:28:21.975Z,9.94
2022-10-04T00:31:29.315Z,9.91
2022-10-04T00:34:31.909Z,9.85
2022-10-04T00:37:58.114Z,9.89
2022-10-04T00:41:04.647Z,9.91
2022-10-04T00:44:12.612Z,9.90
2022-10-04T00:47:18.241Z,9.87
2022-10-04T00:50:34.307Z,9.82
2022-10-04T00:53:57.285Z,9.62
2022-10-04T00:57:05.282Z,9.86
2022-10-04T01:00:12.680Z,9.80
2022-10-04T01:03:20.876Z,9.66
2022-10-04T01:06:23.988Z,9.75
2022-10-04T01:09:27.871Z,9.65
2022-10-04T01:12:36.365Z,9.66
2022-10-04T01:15:49.303Z,9.69
2022-10-04T01:18:52.159Z,9.65
2022-10-04T01:22:05.191Z,9.55
2022-10-04T01:25:08.587Z,9.64
2022-10-04T01:28:11.653Z,9.63
2022-10-04T01:31:15.681Z,9.59
2022-10-04T01:34:20.538Z,9.58
2022-10-04T01:37:23.109Z,9.55
2022-10-04T01:40:26.254Z,9.53
2022-10-04T01:43:35.566Z,9.54
2022-10-04T01:46:40.377Z,9.51
2022-10-04T01:49:44.216Z,9.57
2022-10-04T01:53:16.224Z,9.61
2022-10-04T01:56:25.914Z,9.60
2022-10-04T01:59:33.943Z,9.60
2022-10-04T02:02:42.003Z,9.48
2022-10-04T02:05:51.451Z,9.58
2022-10-04T02:08:57.434Z,9.59
2022-10-04T02:12:01.197Z,9.60
2022-10-04T02:15:07.752Z,9.61
2022-10-04T02:18:15.895Z,9.59
2022-10-04T02:21:19.131Z,9.58
2022-10-04T02:24:22.156Z,9.62
2022-10-04T02:27:32.143Z,9.60
2022-10-04T02:30:39.231Z,9.58
2022-10-04T02:33:42.752Z,9.62
2022-10-04T02:36:46.486Z,9.57
2022-10-04T02:39:54.900Z,9.56
2022-10-04T02:43:03.771Z,9.52
2022-10-04T02:46:14.088Z,9.45
2022-10-04T02:49:27.931Z,9.45
2022-10-04T02:52:36.994Z,9.46
2022-10-04T02:55:42.665Z,9.40
2022-10-04T02:58:45.509Z,9.45
2022-10-04T03:01:52.853Z,9.45
2022-10-04T03:04:59.030Z,9.40
2022-10-04T03:08:01.843Z,9.41
2022-10-04T03:11:04.979Z,9.38
2022-10-04T03:14:15.848Z,9.35
2022-10-04T03:17:18.472Z,9.35
2022-10-04T03:20:21.491Z,9.32
2022-10-04T03:23:24.019Z,9.32
2022-10-04T03:26:34.198Z,9.28
2022-10-04T03:29:40.158Z,9.28
2022-10-04T03:32:43.544Z,9.25
2022-10-04T03:35:48.067Z,9.15
2022-10-04T03:38:53.864Z,9.19
2022-10-04T03:41:58.073Z,9.11
2022-10-04T03:45:03.478Z,9.05
2022-10-04T03:48:08.483Z,9.00
2022-10-04T03:51:15.819Z,8.89
2022-10-04T03:54:23.042Z,8.90
2022-10-04T03:57:26.021Z,8.89
2022-10-04T04:00:29.033Z,8.85
2022-10-04T04:03:42.027Z,8.88
2022-10-04T04:06:54.120Z,8.84
2022-10-04T04:10:05.593Z,8.84
2022-10-04T04:13:11.726Z,8.85
2022-10-04T04:16:14.920Z,8.82
2022-10-04T04:19:19.277Z,8.81
2022-10-04T04:22:22.277Z,8.74
2022-10-04T04:25:26.086Z,8.69
2022-10-04T04:28:49.191Z,8.77
2022-10-04T04:31:51.659Z,8.73
2022-10-04T04:35:00.626Z,8.70
2022-10-04T04:38:16.168Z,8.66
2022-10-04T04:41:21.229Z,8.70
2022-10-04T04:44:23.775Z,8.68
2022-10-04T04:47:32.402Z,8.67
2022-10-04T04:50:37.155Z,8.69
2022-10-04T04:53:43.007Z,8.70
2022-10-04T04:56:48.769Z,8.59
2022-10-04T04:59:58.222Z,8.62
2022-10-04T05:03:02.306Z,8.93
2022-10-04T05:06:07.367Z,10.17
2022-10-04T05:09:26.123Z,9.61
2022-10-04T05:12:29.056Z,9.33
2022-10-04T05:15:34.929Z,9.15
2022-10-04T05:18:37.731Z,9.05
2022-10-04T05:21:47.723Z,9.02
2022-10-04T05:25:13.426Z,8.96
2022-10-04T05:28:17.723Z,8.91
2022-10-04T05:31:29.079Z,8.98
2022-10-04T05:34:38.520Z,9.05
2022-10-04T05:38:05.052Z,9.15
2022-10-04T05:41:09.918Z,9.26
2022-10-04T05:44:46.331Z,9.30
2022-10-04T05:47:53.958Z,9.44
2022-10-04T05:50:59.609Z,9.50
2022-10-04T05:54:03.439Z,9.45
2022-10-04T05:57:31.268Z,9.51
2022-10-04T06:00:55.206Z,9.66
2022-10-04T06:04:16.573Z,9.78
2022-10-04T06:07:25.701Z,9.89
2022-10-04T06:10:50.217Z,10.00
2022-10-04T06:14:00.213Z,10.04
2022-10-04T06:17:27.545Z,10.14
2022-10-04T06:20:36.358Z,10.23
2022-10-04T06:23:48.975Z,10.32
2022-10-04T06:26:55.742Z,10.41
2022-10-04T06:30:05.330Z,10.47
2022-10-04T06:33:49.923Z,10.51
2022-10-04T06:37:05.775Z,10.59
2022-10-04T06:40:29.627Z,10.65
2022-10-04T06:43:48.989Z,10.72
2022-10-04T06:46:56.271Z,10.76
2022-10-04T06:50:26.362Z,10.82
2022-10-04T06:53:47.279Z,10.74
2022-10-04T06:57:14.739Z,10.74
2022-10-04T07:00:27.449Z,10.71
2022-10-04T07:03:51.253Z,10.70
2022-10-04T07:07:25.127Z,10.76
2022-10-04T07:10:31.098Z,10.82
2022-10-04T07:13:42.633Z,10.85
2022-10-04T07:16:56.526Z,11.24
2022-10-04T07:20:00.740Z,11.10
2022-10-04T07:23:07.925Z,11.07
2022-10-04T07:26:23.827Z,11.15
2022-10-04T07:29:32.448Z,11.30
2022-10-04T07:32:36.881Z,11.49
2022-10-04T07:35:45.190Z,11.56
2022-10-04T07:38:52.045Z,12.07
2022-10-04T07:42:06.334Z,12.28
2022-10-04T07:45:15.290Z,12.28
2022-10-04T07:48:23.200Z,12.95
2022-10-04T07:51:31.947Z,13.16
2022-10-04T07:54:40.617Z,13.50
2022-10-04T07:58:01.867Z,13.33
2022-10-04T08:01:29.080Z,13.39
2022-10-04T08:04:31.847Z,13.26
2022-10-04T08:07:50.085Z,13.77
2022-10-04T08:11:25.902Z,13.74
2022-10-04T08:15:23.982Z,13.57
2022-10-04T08:18:39.714Z,13.47
2022-10-04T08:21:59.990Z,13.60
2022-10-04T08:25:42.753Z,13.55
2022-10-04T08:29:03.386Z,13.52
2022-10-04T08:32:09.294Z,13.47
2022-10-04T08:35:33.455Z,13.16
2022-10-04T08:38:43.418Z,12.98
2022-10-04T08:42:11.818Z,12.94
2022-10-04T08:45:38.255Z,12.88
2022-10-04T08:49:11.763Z,12.92
2022-10-04T08:52:48.835Z,12.97
2022-10-04T08:56:15.638Z,13.09
2022-10-04T08:59:58.000Z,13.01
2022-10-04T09:03:58.988Z,12.95
2022-10-04T09:07:12.525Z,13.14
2022-10-04T09:10:25.301Z,13.33
2022-10-04T09:13:33.205Z,13.43
2022-10-04T09:16:49.402Z,13.63
2022-10-04T09:20:09.067Z,14.78
2022-10-04T09:23:31.908Z,15.55
2022-10-04T09:26:56.070Z,16.19
2022-10-04T09:30:18.928Z,16.80
2022-10-04T09:33:40.166Z,17.45
2022-10-04T09:36:52.565Z,17.62
2022-10-04T09:40:01.078Z,18.26
2022-10-04T09:43:12.831Z,18.48
2022-10-04T09:46:19.069Z,18.74
2022-10-04T09:49:50.496Z,18.87
2022-10-04T09:53:02.910Z,19.43
2022-10-04T09:56:36.930Z,19.74
2022-10-04T09:59:59.530Z,19.85
2022-10-04T10:03:25.155Z,19.41
2022-10-04T10:06:34.054Z,19.62
2022-10-04T10:10:03.621Z,18.70
2022-10-04T10:13:43.602Z,18.44
2022-10-04T10:17:04.758Z,19.94
2022-10-04T10:20:45.442Z,20.25
2022-10-04T10:24:06.300Z,19.77
2022-10-04T10:27:25.239Z,18.84
2022-10-04T10:31:05.910Z,20.02
2022-10-04T10:34:21.603Z,20.26
2022-10-04T10:38:04.599Z,21.04
2022-10-04T10:41:08.985Z,21.63
2022-10-04T10:44:23.416Z,21.60
2022-10-04T10:47:52.882Z,21.21
2022-10-04T10:51:15.149Z,21.73
2022-10-04T10:54:30.314Z,22.08
2022-10-04T10:58:00.931Z,22.59
2022-10-04T11:01:41.824Z,22.20
2022-10-04T11:05:14.424Z,21.99
2022-10-04T11:08:30.024Z,21.13
2022-10-04T11:12:00.488Z,20.33
2022-10-04T11:15:40.859Z,20.13
2022-10-04T11:19:06.229Z,19.42
2022-10-04T11:22:45.342Z,19.40
2022-10-04T11:25:50.727Z,20.06
2022-10-04T11:29:31.859Z,20.97
2022-10-04T11:33:12.176Z,21.90
2022-10-04T11:36:34.167Z,22.38
2022-10-04T11:40:01.381Z,22.69
2022-10-04T11:43:44.816Z,23.23
2022-10-04T11:47:02.946Z,22.98
2022-10-04T11:50:39.128Z,22.65
2022-10-04T11:54:04.152Z,22.86
2022-10-04T11:57:25.651Z,23.10
2022-10-04T12:00:49.693Z,23.39
2022-10-04T12:04:23.364Z,23.38
2022-10-04T12:07:52.134Z,23.10
2022-10-04T12:12:07.952Z,23.39
2022-10-04T12:15:20.358Z,23.04
2022-10-04T12:18:44.347Z,23.08
2022-10-04T12:21:50.744Z,22.80
2022-10-04T12:25:26.947Z,22.59
2022-10-04T12:28:56.846Z,22.01
2022-10-04T12:32:15.039Z,20.62
2022-10-04T12:35:34.922Z,19.98
2022-10-04T12:39:02.864Z,18.91
2022-10-04T12:42:36.941Z,18.92
2022-10-04T12:45:45.751Z,18.50
2022-10-04T12:49:04.145Z,19.48
2022-10-04T12:52:20.265Z,20.32
2022-10-04T12:55:41.548Z,20.86
2022-10-04T12:59:05.645Z,20.85
2022-10-04T13:02:45.318Z,20.86
2022-10-04T13:05:54.273Z,20.69
2022-10-04T13:09:11.910Z,20.58
2022-10-04T13:12:24.779Z,20.88
2022-10-04T13:17:23.298Z,20.61
2022-10-04T13:19:10.786Z,20.81
2022-10-04T13:22:55.346Z,20.62
2022-10-04T13:26:32.290Z,20.13
2022-10-04T13:29:47.411Z,19.95
2022-10-04T13:32:58.043Z,19.93
2022-10-04T13:36:08.212Z,20.21
2022-10-04T13:39:35.322Z,19.75
2022-10-04T13:42:58.892Z,19.61
2022-10-04T13:46:14.982Z,19.68
2022-10-04T13:49:45.324Z,19.54
2022-10-04T13:53:10.201Z,19.51
2022-10-04T13:56:37.539Z,19.24
2022-10-04T13:59:45.618Z,19.34
2022-10-04T14:02:53.802Z,19.07
2022-10-04T14:06:02.631Z,18.80
2022-10-04T14:09:15.961Z,18.67
2022-10-04T14:12:41.677Z,18.53
2022-10-04T14:16:06.357Z,18.49
2022-10-04T14:19:09.081Z,18.13
2022-10-04T14:22:23.859Z,17.81
2022-10-04T14:26:02.500Z,17.60
2022-10-04T14:29:45.207Z,17.32
2022-10-04T14:33:20.348Z,17.39
2022-10-04T14:36:57.988Z,17.38
2022-10-04T14:40:20.678Z,17.32
2022-10-04T14:43:35.364Z,17.31
2022-10-04T14:46:44.535Z,17.32
2022-10-04T14:50:41.270Z,17.25
2022-10-04T14:53:56.209Z,17.10
2022-10-04T14:57:11.139Z,16.95
2022-10-04T15:00:23.696Z,16.64
2022-10-04T15:03:39.048Z,16.47
2022-10-04T15:06:49.574Z,16.23
2022-10-04T15:09:56.215Z,14.93
2022-10-04T15:13:17.652Z,15.99
2022-10-04T15:16:34.134Z,15.99
2022-10-04T15:20:04.311Z,15.92
2022-10-04T15:23:13.466Z,14.68
2022-10-04T15:26:19.346Z,15.78
2022-10-04T15:30:01.155Z,15.76
2022-10-04T15:33:30.014Z,15.57
2022-10-04T15:37:01.921Z,15.53
2022-10-04T15:40:23.996Z,15.41
2022-10-04T15:43:44.760Z,15.35
2022-10-04T15:47:11.124Z,15.30
2022-10-04T15:50:25.850Z,15.23
2022-10-04T15:53:44.799Z,15.10
2022-10-04T15:56:56.331Z,15.02
2022-10-04T16:00:08.872Z,14.90
2022-10-04T16:03:39.506Z,15.23
2022-10-04T16:06:51.048Z,15.33
2022-10-04T16:10:15.649Z,15.17
2022-10-04T16:13:39.498Z,14.86
2022-10-04T16:16:59.935Z,14.67
2022-10-04T16:20:34.473Z,14.55
2022-10-04T16:23:42.955Z,14.41
2022-10-04T16:26:51.326Z,14.18
2022-10-04T16:30:25.994Z,14.15
2022-10-04T16:33:37.731Z,13.99
2022-10-04T16:37:25.265Z,13.91
2022-10-04T16:40:30.662Z,14.29
2022-10-04T16:43:34.469Z,14.80
2022-10-04T16:46:38.955Z,14.80
2022-10-04T16:49:51.212Z,14.37
2022-10-04T16:53:21.610Z,14.38
2022-10-04T16:56:27.075Z,14.60
2022-10-04T16:59:38.976Z,14.58
2022-10-04T17:02:57.590Z,14.43
2022-10-04T17:06:15.629Z,14.01
2022-10-04T17:09:48.989Z,13.72
2022-10-04T17:13:07.851Z,13.40
2022-10-04T17:16:16.207Z,13.34
2022-10-04T17:19:51.707Z,13.23
2022-10-04T17:23:04.663Z,13.14
2022-10-04T17:26:41.997Z,13.06
2022-10-04T17:29:58.497Z,12.91
2022-10-04T17:33:14.645Z,12.78
2022-10-04T17:36:39.594Z,12.70
2022-10-04T17:39:44.895Z,12.62
2022-10-04T17:43:05.247Z,12.52
2022-10-04T17:46:13.886Z,12.47
2022-10-04T17:50:00.410Z,12.37
2022-10-04T17:53:31.068Z,12.37
2022-10-04T17:56:44.108Z,12.32
2022-10-04T17:59:50.140Z,12.38
2022-10-04T18:03:12.963Z,12.35
2022-10-04T18:06:27.477Z,12.35
2022-10-04T18:09:43.523Z,12.37
2022-10-04T18:12:56.202Z,12.38
2022-10-04T18:16:40.202Z,12.38
2022-10-04T18:19:51.832Z,12.40
2022-10-04T18:23:15.271Z,12.39
2022-10-04T18:26:18.494Z,12.35
2022-10-04T18:29:37.889Z,12.33
2022-10-04T18:32:57.330Z,12.30
2022-10-04T18:36:06.497Z,12.12
2022-10-04T18:39:12.230Z,12.18
2022-10-04T18:42:20.318Z,12.14
2022-10-04T18:45:31.283Z,12.16
2022-10-04T18:49:09.071Z,12.09
2022-10-04T18:52:17.129Z,12.12
2022-10-04T18:55:45.039Z,12.12
2022-10-04T18:59:13.566Z,12.11
2022-10-04T19:02:21.937Z,12.14
2022-10-04T19:05:53.460Z,12.12
2022-10-04T19:09:26.067Z,12.10
2022-10-04T19:12:35.600Z,12.08
2022-10-04T19:15:53.178Z,12.01
2022-10-04T19:19:15.302Z,12.01
2022-10-04T19:22:26.728Z,11.99
2022-10-04T19:26:09.839Z,11.96
2022-10-04T19:29:46.511Z,11.96
2022-10-04T19:33:24.754Z,11.96
2022-10-04T19:36:57.748Z,11.93
2022-10-04T19:40:30.190Z,11.91
2022-10-04T19:43:51.248Z,11.88
2022-10-04T19:47:04.538Z,11.89
2022-10-04T19:50:18.495Z,11.83
2022-10-04T19:53:28.564Z,11.79
2022-10-04T19:56:35.844Z,11.80
2022-10-04T19:59:42.875Z,11.75
2022-10-04T20:02:48.659Z,11.78
2022-10-04T20:05:54.711Z,11.79
2022-10-04T20:09:02.678Z,11.74
2022-10-04T20:12:06.243Z,11.62
2022-10-04T20:15:43.566Z,11.68
2022-10-04T20:18:58.927Z,11.57
2022-10-04T20:22:07.479Z,11.51
2022-10-04T20:25:10.599Z,11.45
2022-10-04T20:28:42.976Z,10.98
2022-10-04T20:31:53.310Z,11.25
2022-10-04T20:34:57.511Z,11.15
2022-10-04T20:38:27.326Z,11.11
2022-10-04T20:41:29.508Z,11.04
2022-10-04T20:44:51.208Z,10.96
2022-10-04T20:47:57.605Z,10.89
2022-10-04T20:51:09.626Z,10.91
2022-10-04T20:54:17.712Z,10.86
2022-10-04T20:57:24.436Z,10.86
2022-10-04T21:00:33.704Z,10.96
2022-10-04T21:03:37.150Z,10.88
2022-10-04T21:07:00.058Z,10.97
2022-10-04T21:10:15.201Z,11.00
2022-10-04T21:13:42.458Z,11.00
2022-10-04T21:16:57.536Z,11.03
2022-10-04T21:20:05.923Z,11.03
2022-10-04T21:23:17.315Z,11.03
2022-10-04T21:26:26.081Z,11.00
2022-10-04T21:29:28.973Z,10.98
2022-10-04T21:32:36.323Z,10.94
2022-10-04T21:35:39.682Z,10.86
2022-10-04T21:38:42.533Z,10.80
2022-10-04T21:41:45.900Z,10.77
2022-10-04T21:44:48.733Z,10.79
2022-10-04T21:47:51.635Z,10.46
2022-10-04T21:50:54.919Z,10.67
2022-10-04T21:53:57.703Z,10.62
2022-10-04T21:57:00.285Z,10.50
2022-10-04T22:00:05.276Z,10.35
2022-10-04T22:03:14.590Z,10.28
2022-10-04T22:06:17.691Z,10.20
2022-10-04T22:09:20.214Z,10.08
2022-10-04T22:12:22.927Z,10.01
2022-10-04T22:15:27.521Z,9.93
2022-10-04T22:18:33.578Z,9.96
2022-10-04T22:21:36.145Z,9.93
2022-10-04T22:24:39.070Z,9.95
2022-10-04T22:27:42.085Z,9.94
2022-10-04T22:30:49.602Z,9.86
2022-10-04T22:33:52.513Z,9.87
2022-10-04T22:36:55.401Z,9.79
2022-10-04T22:39:58.071Z,9.78
2022-10-04T22:43:00.987Z,9.73
2022-10-04T22:46:03.646Z,9.40
2022-10-04T22:49:15.633Z,9.64
2022-10-04T22:52:23.039Z,9.62
2022-10-04T22:55:26.033Z,9.69
2022-10-04T22:58:28.677Z,9.67
2022-10-04T23:01:31.812Z,9.63
2022-10-04T23:04:34.575Z,9.60
2022-10-04T23:07:38.521Z,9.49
2022-10-04T23:10:41.395Z,9.56
2022-10-04T23:13:44.314Z,9.65
2022-10-04T23:16:47.232Z,9.63
2022-10-04T23:19:56.795Z,9.60
2022-10-04T23:22:59.684Z,9.59
2022-10-04T23:26:02.619Z,9.53
2022-10-04T23:29:26.486Z,9.39
2022-10-04T23:32:31.391Z,9.42
2022-10-04T23:35:34.221Z,9.33
2022-10-04T23:38:37.249Z,9.44
2022-10-04T23:41:39.916Z,9.37
2022-10-04T23:44:42.930Z,9.37
2022-10-04T23:47:46.373Z,9.30
2022-10-04T23:50:49.540Z,9.28
2022-10-04T23:53:52.258Z,9.28
2022-10-04T23:56:55.171Z,9.12
2022-10-04T23:59:59.977Z,9.08
